sensor_id;sensor_type;location;lat;lon;timestamp;P1;durP1;ratioP1;P2;durP2;ratioP2
29838;SDS011;18669;53.356;-1.464;2022-10-19T00:02:12;10.98;;;4.20;;
29838;SDS011;18669;53.356;-1.464;2022-10-19T00:04:39;11.73;;;4.57;;
29838;SDS011;18669;53.356;-1.464;2022-10-19T00:09:31;7.93;;;4.00;;
29838;SDS011;18669;53.356;-1.464;2022-10-19T00:11:57;11.20;;;4.47;;
29838;SDS011;18669;53.356;-1.464;2022-10-19T00:14:24;6.72;;;3.95;;
29838;SDS011;18669;53.356;-1.464;2022-10-19T00:16:51;10.07;;;4.03;;
29838;SDS011;18669;53.356;-1.464;2022-10-19T00:19:19;7.93;;;3.40;;
29838;SDS011;18669;53.356;-1.464;2022-10-19T00:21:47;5.32;;;3.40;;
29838;SDS011;18669;53.356;-1.464;2022-10-19T00:24:14;10.23;;;3.63;;
29838;SDS011;18669;53.356;-1.464;2022-10-19T00:26:40;11.18;;;3.90;;
29838;SDS011;18669;53.356;-1.464;2022-10-19T00:29:07;8.07;;;3.60;;
29838;SDS011;18669;53.356;-1.464;2022-10-19T00:31:33;8.48;;;3.80;;
29838;SDS011;18669;53.356;-1.464;2022-10-19T00:34:00;12.43;;;3.67;;
29838;SDS011;18669;53.356;-1.464;2022-10-19T00:41:20;8.70;;;3.90;;
29838;SDS011;18669;53.356;-1.464;2022-10-19T00:44:02;8.05;;;3.92;;
29838;SDS011;18669;53.356;-1.464;2022-10-19T00:46:35;10.23;;;4.13;;
29838;SDS011;18669;53.356;-1.464;2022-10-19T00:49:05;7.93;;;3.63;;
29838;SDS011;18669;53.356;-1.464;2022-10-19T00:51:36;9.68;;;3.38;;
29838;SDS011;18669;53.356;-1.464;2022-10-19T00:54:05;9.25;;;3.28;;
29838;SDS011;18669;53.356;-1.464;2022-10-19T00:56:33;11.93;;;3.97;;
29838;SDS011;18669;53.356;-1.464;2022-10-19T00:59:01;7.40;;;3.42;;
29838;SDS011;18669;53.356;-1.464;2022-10-19T01:01:29;8.95;;;3.30;;
29838;SDS011;18669;53.356;-1.464;2022-10-19T01:03:56;4.85;;;2.85;;
29838;SDS011;18669;53.356;-1.464;2022-10-19T01:08:50;8.85;;;3.33;;
29838;SDS011;18669;53.356;-1.464;2022-10-19T01:11:24;10.23;;;3.20;;
29838;SDS011;18669;53.356;-1.464;2022-10-19T01:13:55;4.90;;;2.72;;
29838;SDS011;18669;53.356;-1.464;2022-10-19T01:16:57;10.65;;;3.33;;
29838;SDS011;18669;53.356;-1.464;2022-10-19T01:30:52;6.05;;;2.20;;
29838;SDS011;18669;53.356;-1.464;2022-10-19T01:38:51;4.28;;;2.20;;
29838;SDS011;18669;53.356;-1.464;2022-10-19T01:44:54;5.35;;;1.83;;
29838;SDS011;18669;53.356;-1.464;2022-10-19T01:47:44;8.45;;;1.88;;
29838;SDS011;18669;53.356;-1.464;2022-10-19T01:52:46;3.28;;;1.80;;
29838;SDS011;18669;53.356;-1.464;2022-10-19T01:55:15;6.75;;;2.17;;
29838;SDS011;18669;53.356;-1.464;2022-10-19T01:57:46;4.03;;;2.00;;
29838;SDS011;18669;53.356;-1.464;2022-10-19T02:00:15;3.25;;;2.05;;
29838;SDS011;18669;53.356;-1.464;2022-10-19T02:02:45;9.13;;;2.00;;
29838;SDS011;18669;53.356;-1.464;2022-10-19T02:05:14;4.57;;;1.80;;
29838;SDS011;18669;53.356;-1.464;2022-10-19T02:07:55;7.70;;;1.92;;
29838;SDS011;18669;53.356;-1.464;2022-10-19T02:10:30;3.47;;;1.50;;
29838;SDS011;18669;53.356;-1.464;2022-10-19T02:12:59;9.38;;;1.80;;
29838;SDS011;18669;53.356;-1.464;2022-10-19T02:15:28;7.00;;;2.25;;
29838;SDS011;18669;53.356;-1.464;2022-10-19T02:17:59;4.95;;;1.65;;
29838;SDS011;18669;53.356;-1.464;2022-10-19T02:20:28;5.68;;;1.80;;
29838;SDS011;18669;53.356;-1.464;2022-10-19T02:22:55;4.82;;;1.80;;
29838;SDS011;18669;53.356;-1.464;2022-10-19T02:25:22;4.75;;;1.70;;
29838;SDS011;18669;53.356;-1.464;2022-10-19T02:27:49;7.65;;;1.92;;
29838;SDS011;18669;53.356;-1.464;2022-10-19T02:30:16;4.10;;;1.52;;
29838;SDS011;18669;53.356;-1.464;2022-10-19T02:32:44;5.15;;;1.48;;
29838;SDS011;18669;53.356;-1.464;2022-10-19T02:37:38;6.75;;;1.67;;
29838;SDS011;18669;53.356;-1.464;2022-10-19T02:40:05;3.28;;;1.60;;
29838;SDS011;18669;53.356;-1.464;2022-10-19T02:42:47;4.45;;;1.48;;
29838;SDS011;18669;53.356;-1.464;2022-10-19T02:45:19;3.65;;;1.60;;
29838;SDS011;18669;53.356;-1.464;2022-10-19T02:47:54;5.10;;;1.63;;
29838;SDS011;18669;53.356;-1.464;2022-10-19T02:50:26;4.65;;;1.40;;
29838;SDS011;18669;53.356;-1.464;2022-10-19T02:52:53;3.72;;;1.33;;
29838;SDS011;18669;53.356;-1.464;2022-10-19T02:57:45;4.93;;;1.50;;
29838;SDS011;18669;53.356;-1.464;2022-10-19T03:00:11;3.28;;;1.42;;
29838;SDS011;18669;53.356;-1.464;2022-10-19T03:02:37;7.63;;;1.48;;
29838;SDS011;18669;53.356;-1.464;2022-10-19T03:05:04;6.25;;;1.15;;
29838;SDS011;18669;53.356;-1.464;2022-10-19T03:07:30;4.13;;;1.40;;
29838;SDS011;18669;53.356;-1.464;2022-10-19T03:12:22;4.65;;;1.38;;
29838;SDS011;18669;53.356;-1.464;2022-10-19T03:17:14;3.90;;;1.30;;
29838;SDS011;18669;53.356;-1.464;2022-10-19T03:19:41;4.65;;;1.25;;
29838;SDS011;18669;53.356;-1.464;2022-10-19T03:22:07;6.07;;;1.42;;
29838;SDS011;18669;53.356;-1.464;2022-10-19T03:26:59;4.97;;;1.33;;
29838;SDS011;18669;53.356;-1.464;2022-10-19T03:29:26;6.18;;;1.38;;
29838;SDS011;18669;53.356;-1.464;2022-10-19T03:31:52;10.63;;;1.92;;
29838;SDS011;18669;53.356;-1.464;2022-10-19T03:34:19;3.20;;;1.20;;
29838;SDS011;18669;53.356;-1.464;2022-10-19T03:36:45;4.90;;;1.48;;
29838;SDS011;18669;53.356;-1.464;2022-10-19T03:39:12;3.55;;;1.27;;
29838;SDS011;18669;53.356;-1.464;2022-10-19T03:41:39;3.75;;;1.20;;
29838;SDS011;18669;53.356;-1.464;2022-10-19T03:44:06;5.90;;;1.45;;
29838;SDS011;18669;53.356;-1.464;2022-10-19T03:46:34;4.45;;;1.17;;
29838;SDS011;18669;53.356;-1.464;2022-10-19T03:49:01;4.28;;;1.23;;
29838;SDS011;18669;53.356;-1.464;2022-10-19T03:51:29;6.22;;;1.30;;
29838;SDS011;18669;53.356;-1.464;2022-10-19T03:53:57;4.22;;;1.20;;
29838;SDS011;18669;53.356;-1.464;2022-10-19T03:56:26;4.50;;;1.48;;
29838;SDS011;18669;53.356;-1.464;2022-10-19T03:58:54;3.33;;;1.27;;
29838;SDS011;18669;53.356;-1.464;2022-10-19T04:03:54;6.20;;;1.10;;
29838;SDS011;18669;53.356;-1.464;2022-10-19T04:06:26;4.03;;;1.10;;
29838;SDS011;18669;53.356;-1.464;2022-10-19T04:09:00;4.13;;;1.17;;
29838;SDS011;18669;53.356;-1.464;2022-10-19T04:11:30;4.15;;;0.90;;
29838;SDS011;18669;53.356;-1.464;2022-10-19T04:13:57;6.55;;;1.23;;
29838;SDS011;18669;53.356;-1.464;2022-10-19T04:16:24;2.38;;;1.15;;
29838;SDS011;18669;53.356;-1.464;2022-10-19T04:18:52;3.28;;;1.00;;
29838;SDS011;18669;53.356;-1.464;2022-10-19T04:21:29;2.63;;;0.80;;
29838;SDS011;18669;53.356;-1.464;2022-10-19T04:23:58;2.20;;;0.95;;
29838;SDS011;18669;53.356;-1.464;2022-10-19T04:26:26;3.22;;;0.93;;
29838;SDS011;18669;53.356;-1.464;2022-10-19T04:28:55;5.95;;;1.08;;
29838;SDS011;18669;53.356;-1.464;2022-10-19T04:31:25;3.50;;;0.82;;
29838;SDS011;18669;53.356;-1.464;2022-10-19T04:33:53;3.50;;;1.10;;
29838;SDS011;18669;53.356;-1.464;2022-10-19T04:36:19;8.50;;;1.27;;
29838;SDS011;18669;53.356;-1.464;2022-10-19T04:41:12;2.85;;;0.88;;
29838;SDS011;18669;53.356;-1.464;2022-10-19T04:43:40;5.78;;;0.98;;
29838;SDS011;18669;53.356;-1.464;2022-10-19T04:51:00;5.13;;;0.75;;
29838;SDS011;18669;53.356;-1.464;2022-10-19T04:53:27;3.85;;;1.00;;
29838;SDS011;18669;53.356;-1.464;2022-10-19T04:58:19;4.63;;;1.35;;
29838;SDS011;18669;53.356;-1.464;2022-10-19T05:00:45;3.78;;;1.17;;
29838;SDS011;18669;53.356;-1.464;2022-10-19T05:03:12;4.35;;;1.38;;
29838;SDS011;18669;53.356;-1.464;2022-10-19T05:05:42;4.13;;;1.35;;
29838;SDS011;18669;53.356;-1.464;2022-10-19T05:08:08;4.80;;;1.10;;
29838;SDS011;18669;53.356;-1.464;2022-10-19T05:10:36;6.57;;;1.50;;
29838;SDS011;18669;53.356;-1.464;2022-10-19T05:13:03;2.78;;;1.13;;
29838;SDS011;18669;53.356;-1.464;2022-10-19T05:15:29;3.80;;;1.05;;
29838;SDS011;18669;53.356;-1.464;2022-10-19T05:17:56;2.85;;;1.00;;
29838;SDS011;18669;53.356;-1.464;2022-10-19T05:20:22;3.97;;;0.98;;
29838;SDS011;18669;53.356;-1.464;2022-10-19T05:22:48;1.98;;;0.95;;
29838;SDS011;18669;53.356;-1.464;2022-10-19T05:27:40;7.50;;;1.77;;
29838;SDS011;18669;53.356;-1.464;2022-10-19T05:32:34;6.82;;;0.90;;
29838;SDS011;18669;53.356;-1.464;2022-10-19T05:35:00;4.03;;;1.00;;
29838;SDS011;18669;53.356;-1.464;2022-10-19T05:39:53;5.03;;;0.82;;
29838;SDS011;18669;53.356;-1.464;2022-10-19T05:42:20;4.90;;;0.90;;
29838;SDS011;18669;53.356;-1.464;2022-10-19T05:44:46;2.85;;;0.77;;
29838;SDS011;18669;53.356;-1.464;2022-10-19T05:49:38;4.60;;;0.70;;
29838;SDS011;18669;53.356;-1.464;2022-10-19T05:52:04;3.80;;;0.90;;
29838;SDS011;18669;53.356;-1.464;2022-10-19T05:56:56;3.92;;;1.00;;
29838;SDS011;18669;53.356;-1.464;2022-10-19T05:59:22;3.28;;;1.10;;
29838;SDS011;18669;53.356;-1.464;2022-10-19T06:01:49;2.13;;;1.08;;
29838;SDS011;18669;53.356;-1.464;2022-10-19T06:06:41;2.92;;;0.77;;
29838;SDS011;18669;53.356;-1.464;2022-10-19T06:09:08;4.90;;;0.70;;
29838;SDS011;18669;53.356;-1.464;2022-10-19T06:11:36;3.10;;;0.80;;
29838;SDS011;18669;53.356;-1.464;2022-10-19T06:14:05;3.33;;;1.25;;
29838;SDS011;18669;53.356;-1.464;2022-10-19T06:16:33;5.78;;;1.55;;
29838;SDS011;18669;53.356;-1.464;2022-10-19T06:18:59;5.07;;;0.95;;
29838;SDS011;18669;53.356;-1.464;2022-10-19T06:21:27;2.08;;;0.90;;
29838;SDS011;18669;53.356;-1.464;2022-10-19T06:23:58;4.70;;;1.08;;
29838;SDS011;18669;53.356;-1.464;2022-10-19T06:26:25;4.70;;;0.98;;
29838;SDS011;18669;53.356;-1.464;2022-10-19T06:28:55;2.00;;;0.80;;
29838;SDS011;18669;53.356;-1.464;2022-10-19T06:31:25;2.05;;;0.75;;
29838;SDS011;18669;53.356;-1.464;2022-10-19T06:33:55;3.03;;;1.30;;
29838;SDS011;18669;53.356;-1.464;2022-10-19T06:36:23;4.60;;;1.00;;
29838;SDS011;18669;53.356;-1.464;2022-10-19T06:38:50;5.15;;;1.20;;
29838;SDS011;18669;53.356;-1.464;2022-10-19T06:41:17;2.83;;;0.90;;
29838;SDS011;18669;53.356;-1.464;2022-10-19T06:43:48;3.30;;;1.08;;
29838;SDS011;18669;53.356;-1.464;2022-10-19T06:46:19;5.47;;;1.15;;
29838;SDS011;18669;53.356;-1.464;2022-10-19T06:48:57;3.70;;;1.10;;
29838;SDS011;18669;53.356;-1.464;2022-10-19T06:51:27;5.60;;;1.20;;
29838;SDS011;18669;53.356;-1.464;2022-10-19T06:53:59;5.28;;;1.20;;
29838;SDS011;18669;53.356;-1.464;2022-10-19T06:56:25;3.35;;;0.82;;
29838;SDS011;18669;53.356;-1.464;2022-10-19T06:58:52;4.45;;;1.10;;
29838;SDS011;18669;53.356;-1.464;2022-10-19T07:01:19;5.05;;;1.08;;
29838;SDS011;18669;53.356;-1.464;2022-10-19T07:03:45;2.03;;;0.80;;
29838;SDS011;18669;53.356;-1.464;2022-10-19T07:06:12;5.03;;;0.88;;
29838;SDS011;18669;53.356;-1.464;2022-10-19T07:08:39;4.95;;;1.35;;
29838;SDS011;18669;53.356;-1.464;2022-10-19T07:11:10;6.32;;;1.20;;
29838;SDS011;18669;53.356;-1.464;2022-10-19T07:13:40;9.85;;;1.00;;
29838;SDS011;18669;53.356;-1.464;2022-10-19T07:16:07;4.90;;;1.38;;
29838;SDS011;18669;53.356;-1.464;2022-10-19T07:18:36;3.25;;;1.20;;
29838;SDS011;18669;53.356;-1.464;2022-10-19T07:21:05;5.95;;;1.40;;
29838;SDS011;18669;53.356;-1.464;2022-10-19T07:23:34;3.30;;;1.00;;
29838;SDS011;18669;53.356;-1.464;2022-10-19T07:29:00;2.75;;;0.80;;
29838;SDS011;18669;53.356;-1.464;2022-10-19T07:31:27;2.33;;;1.10;;
29838;SDS011;18669;53.356;-1.464;2022-10-19T07:33:58;1.02;;;0.75;;
29838;SDS011;18669;53.356;-1.464;2022-10-19T07:36:26;1.20;;;0.63;;
29838;SDS011;18669;53.356;-1.464;2022-10-19T07:38:53;3.38;;;1.20;;
29838;SDS011;18669;53.356;-1.464;2022-10-19T07:41:20;5.32;;;0.93;;
29838;SDS011;18669;53.356;-1.464;2022-10-19T07:43:48;4.30;;;0.90;;
29838;SDS011;18669;53.356;-1.464;2022-10-19T07:46:16;7.10;;;1.20;;
29838;SDS011;18669;53.356;-1.464;2022-10-19T07:48:45;5.13;;;0.93;;
29838;SDS011;18669;53.356;-1.464;2022-10-19T07:51:12;7.07;;;1.02;;
29838;SDS011;18669;53.356;-1.464;2022-10-19T07:53:40;4.07;;;1.05;;
29838;SDS011;18669;53.356;-1.464;2022-10-19T07:56:07;5.82;;;1.20;;
29838;SDS011;18669;53.356;-1.464;2022-10-19T07:58:38;3.05;;;1.00;;
29838;SDS011;18669;53.356;-1.464;2022-10-19T08:01:09;7.82;;;1.10;;
29838;SDS011;18669;53.356;-1.464;2022-10-19T08:03:37;7.05;;;1.52;;
29838;SDS011;18669;53.356;-1.464;2022-10-19T08:06:04;5.10;;;1.40;;
29838;SDS011;18669;53.356;-1.464;2022-10-19T08:08:32;8.73;;;1.60;;
29838;SDS011;18669;53.356;-1.464;2022-10-19T08:11:12;4.90;;;1.77;;
29838;SDS011;18669;53.356;-1.464;2022-10-19T08:13:46;7.75;;;1.83;;
29838;SDS011;18669;53.356;-1.464;2022-10-19T08:16:23;4.43;;;1.00;;
29838;SDS011;18669;53.356;-1.464;2022-10-19T08:19:02;10.77;;;1.17;;
29838;SDS011;18669;53.356;-1.464;2022-10-19T08:21:31;4.32;;;2.17;;
29838;SDS011;18669;53.356;-1.464;2022-10-19T08:23:58;34.75;;;19.98;;
29838;SDS011;18669;53.356;-1.464;2022-10-19T08:26:33;23.05;;;12.20;;
29838;SDS011;18669;53.356;-1.464;2022-10-19T08:31:29;15.60;;;7.93;;
29838;SDS011;18669;53.356;-1.464;2022-10-19T08:33:55;10.45;;;2.67;;
29838;SDS011;18669;53.356;-1.464;2022-10-19T08:36:22;4.93;;;1.80;;
29838;SDS011;18669;53.356;-1.464;2022-10-19T08:38:52;8.38;;;1.08;;
29838;SDS011;18669;53.356;-1.464;2022-10-19T08:49:06;10.45;;;4.35;;
29838;SDS011;18669;53.356;-1.464;2022-10-19T08:51:36;16.02;;;10.63;;
29838;SDS011;18669;53.356;-1.464;2022-10-19T08:54:05;8.55;;;5.38;;
29838;SDS011;18669;53.356;-1.464;2022-10-19T08:56:39;9.52;;;1.25;;
29838;SDS011;18669;53.356;-1.464;2022-10-19T09:02:01;5.97;;;1.10;;
29838;SDS011;18669;53.356;-1.464;2022-10-19T09:09:42;6.05;;;2.30;;
29838;SDS011;18669;53.356;-1.464;2022-10-19T09:12:15;1.83;;;1.10;;
29838;SDS011;18669;53.356;-1.464;2022-10-19T09:14:56;5.43;;;1.42;;
29838;SDS011;18669;53.356;-1.464;2022-10-19T09:17:26;7.07;;;1.27;;
29838;SDS011;18669;53.356;-1.464;2022-10-19T09:19:53;6.57;;;1.23;;
29838;SDS011;18669;53.356;-1.464;2022-10-19T09:22:28;6.38;;;1.50;;
29838;SDS011;18669;53.356;-1.464;2022-10-19T09:25:03;3.97;;;1.13;;
29838;SDS011;18669;53.356;-1.464;2022-10-19T09:27:39;2.35;;;0.98;;
29838;SDS011;18669;53.356;-1.464;2022-10-19T09:30:14;3.83;;;1.10;;
29838;SDS011;18669;53.356;-1.464;2022-10-19T09:32:43;3.17;;;1.00;;
29838;SDS011;18669;53.356;-1.464;2022-10-19T09:37:45;9.85;;;4.85;;
29838;SDS011;18669;53.356;-1.464;2022-10-19T09:40:18;9.27;;;2.00;;
29838;SDS011;18669;53.356;-1.464;2022-10-19T09:42:48;6.25;;;1.02;;
29838;SDS011;18669;53.356;-1.464;2022-10-19T09:45:28;6.45;;;2.00;;
29838;SDS011;18669;53.356;-1.464;2022-10-19T09:48:26;6.22;;;1.42;;
29838;SDS011;18669;53.356;-1.464;2022-10-19T09:50:57;6.18;;;1.08;;
29838;SDS011;18669;53.356;-1.464;2022-10-19T09:53:25;3.70;;;1.40;;
29838;SDS011;18669;53.356;-1.464;2022-10-19T09:55:58;6.82;;;1.73;;
29838;SDS011;18669;53.356;-1.464;2022-10-19T09:58:46;10.20;;;4.82;;
29838;SDS011;18669;53.356;-1.464;2022-10-19T10:04:04;5.30;;;1.30;;
29838;SDS011;18669;53.356;-1.464;2022-10-19T10:06:35;8.63;;;1.30;;
29838;SDS011;18669;53.356;-1.464;2022-10-19T10:09:03;2.80;;;1.10;;
29838;SDS011;18669;53.356;-1.464;2022-10-19T10:11:31;3.55;;;1.17;;
29838;SDS011;18669;53.356;-1.464;2022-10-19T10:14:06;5.80;;;1.60;;
29838;SDS011;18669;53.356;-1.464;2022-10-19T10:16:45;3.88;;;1.25;;
29838;SDS011;18669;53.356;-1.464;2022-10-19T10:19:12;7.82;;;1.60;;
29838;SDS011;18669;53.356;-1.464;2022-10-19T10:24:15;9.48;;;1.55;;
29838;SDS011;18669;53.356;-1.464;2022-10-19T10:26:44;8.05;;;1.38;;
29838;SDS011;18669;53.356;-1.464;2022-10-19T10:32:00;7.28;;;1.50;;
29838;SDS011;18669;53.356;-1.464;2022-10-19T10:34:42;5.78;;;1.88;;
29838;SDS011;18669;53.356;-1.464;2022-10-19T10:37:24;9.05;;;2.00;;
29838;SDS011;18669;53.356;-1.464;2022-10-19T10:40:21;6.95;;;1.42;;
29838;SDS011;18669;53.356;-1.464;2022-10-19T10:42:51;10.32;;;1.73;;
29838;SDS011;18669;53.356;-1.464;2022-10-19T10:45:25;7.78;;;1.67;;
29838;SDS011;18669;53.356;-1.464;2022-10-19T10:48:28;6.43;;;1.40;;
29838;SDS011;18669;53.356;-1.464;2022-10-19T10:50:58;7.47;;;1.90;;
29838;SDS011;18669;53.356;-1.464;2022-10-19T10:53:39;7.03;;;1.55;;
29838;SDS011;18669;53.356;-1.464;2022-10-19T10:56:21;5.38;;;1.77;;
29838;SDS011;18669;53.356;-1.464;2022-10-19T10:59:35;5.72;;;1.70;;
29838;SDS011;18669;53.356;-1.464;2022-10-19T11:04:45;3.78;;;1.80;;
29838;SDS011;18669;53.356;-1.464;2022-10-19T11:07:18;9.82;;;3.05;;
29838;SDS011;18669;53.356;-1.464;2022-10-19T11:09:52;6.38;;;2.17;;
29838;SDS011;18669;53.356;-1.464;2022-10-19T11:12:57;9.97;;;2.00;;
29838;SDS011;18669;53.356;-1.464;2022-10-19T11:15:31;6.43;;;2.38;;
29838;SDS011;18669;53.356;-1.464;2022-10-19T11:26:19;11.00;;;2.03;;
29838;SDS011;18669;53.356;-1.464;2022-10-19T11:32:37;8.63;;;1.73;;
29838;SDS011;18669;53.356;-1.464;2022-10-19T11:43:33;5.75;;;1.15;;
29838;SDS011;18669;53.356;-1.464;2022-10-19T12:02:09;6.43;;;1.00;;
29838;SDS011;18669;53.356;-1.464;2022-10-19T12:05:03;3.80;;;1.10;;
29838;SDS011;18669;53.356;-1.464;2022-10-19T12:10:55;5.15;;;1.40;;
29838;SDS011;18669;53.356;-1.464;2022-10-19T12:13:33;4.72;;;1.58;;
29838;SDS011;18669;53.356;-1.464;2022-10-19T12:16:05;3.67;;;1.40;;
29838;SDS011;18669;53.356;-1.464;2022-10-19T12:18:35;6.60;;;1.25;;
29838;SDS011;18669;53.356;-1.464;2022-10-19T12:21:13;6.13;;;1.10;;
29838;SDS011;18669;53.356;-1.464;2022-10-19T12:23:43;5.82;;;1.30;;
29838;SDS011;18669;53.356;-1.464;2022-10-19T12:26:13;9.77;;;1.15;;
29838;SDS011;18669;53.356;-1.464;2022-10-19T12:28:45;6.15;;;1.60;;
29838;SDS011;18669;53.356;-1.464;2022-10-19T12:31:14;5.53;;;1.20;;
29838;SDS011;18669;53.356;-1.464;2022-10-19T12:33:51;5.75;;;1.00;;
29838;SDS011;18669;53.356;-1.464;2022-10-19T12:45:07;3.00;;;0.93;;
29838;SDS011;18669;53.356;-1.464;2022-10-19T12:48:13;4.00;;;1.20;;
29838;SDS011;18669;53.356;-1.464;2022-10-19T12:56:05;7.25;;;0.85;;
29838;SDS011;18669;53.356;-1.464;2022-10-19T13:01:04;6.28;;;1.13;;
29838;SDS011;18669;53.356;-1.464;2022-10-19T13:03:41;7.30;;;1.50;;
29838;SDS011;18669;53.356;-1.464;2022-10-19T13:06:14;6.78;;;1.05;;
29838;SDS011;18669;53.356;-1.464;2022-10-19T13:08:53;6.50;;;1.20;;
29838;SDS011;18669;53.356;-1.464;2022-10-19T13:11:28;7.82;;;1.33;;
29838;SDS011;18669;53.356;-1.464;2022-10-19T13:24:26;6.40;;;1.23;;
29838;SDS011;18669;53.356;-1.464;2022-10-19T13:40:36;6.05;;;1.13;;
29838;SDS011;18669;53.356;-1.464;2022-10-19T13:43:04;7.65;;;1.77;;
29838;SDS011;18669;53.356;-1.464;2022-10-19T13:45:40;8.80;;;1.20;;
29838;SDS011;18669;53.356;-1.464;2022-10-19T13:48:10;5.50;;;1.73;;
29838;SDS011;18669;53.356;-1.464;2022-10-19T13:50:48;6.90;;;0.98;;
29838;SDS011;18669;53.356;-1.464;2022-10-19T14:01:48;9.27;;;1.33;;
29838;SDS011;18669;53.356;-1.464;2022-10-19T14:07:42;7.45;;;1.40;;
29838;SDS011;18669;53.356;-1.464;2022-10-19T14:10:16;8.02;;;1.13;;
29838;SDS011;18669;53.356;-1.464;2022-10-19T14:12:44;7.13;;;1.25;;
29838;SDS011;18669;53.356;-1.464;2022-10-19T14:17:43;3.03;;;1.15;;
29838;SDS011;18669;53.356;-1.464;2022-10-19T14:22:51;9.65;;;2.95;;
29838;SDS011;18669;53.356;-1.464;2022-10-19T14:25:19;32.83;;;17.80;;
29838;SDS011;18669;53.356;-1.464;2022-10-19T14:27:49;15.18;;;8.02;;
29838;SDS011;18669;53.356;-1.464;2022-10-19T14:30:22;29.00;;;14.25;;
29838;SDS011;18669;53.356;-1.464;2022-10-19T14:32:49;10.00;;;5.97;;
29838;SDS011;18669;53.356;-1.464;2022-10-19T14:35:38;12.73;;;4.97;;
29838;SDS011;18669;53.356;-1.464;2022-10-19T14:38:05;9.90;;;3.83;;
29838;SDS011;18669;53.356;-1.464;2022-10-19T14:40:37;13.32;;;7.63;;
29838;SDS011;18669;53.356;-1.464;2022-10-19T14:43:21;10.52;;;1.88;;
29838;SDS011;18669;53.356;-1.464;2022-10-19T14:48:37;7.55;;;1.75;;
29838;SDS011;18669;53.356;-1.464;2022-10-19T14:59:27;7.93;;;1.52;;
29838;SDS011;18669;53.356;-1.464;2022-10-19T15:01:57;10.25;;;1.40;;
29838;SDS011;18669;53.356;-1.464;2022-10-19T15:04:31;10.50;;;1.63;;
29838;SDS011;18669;53.356;-1.464;2022-10-19T15:07:02;10.57;;;1.77;;
29838;SDS011;18669;53.356;-1.464;2022-10-19T15:09:39;9.10;;;1.70;;
29838;SDS011;18669;53.356;-1.464;2022-10-19T15:12:18;5.50;;;1.52;;
29838;SDS011;18669;53.356;-1.464;2022-10-19T15:14:51;11.65;;;1.58;;
29838;SDS011;18669;53.356;-1.464;2022-10-19T15:17:27;6.63;;;1.40;;
29838;SDS011;18669;53.356;-1.464;2022-10-19T15:19:55;4.95;;;1.80;;
29838;SDS011;18669;53.356;-1.464;2022-10-19T15:22:36;6.05;;;1.50;;
29838;SDS011;18669;53.356;-1.464;2022-10-19T15:27:34;8.98;;;2.67;;
29838;SDS011;18669;53.356;-1.464;2022-10-19T15:30:21;6.25;;;1.70;;
29838;SDS011;18669;53.356;-1.464;2022-10-19T15:38:04;6.93;;;1.50;;
29838;SDS011;18669;53.356;-1.464;2022-10-19T15:40:54;15.02;;;1.75;;
29838;SDS011;18669;53.356;-1.464;2022-10-19T15:43:41;14.35;;;1.75;;
29838;SDS011;18669;53.356;-1.464;2022-10-19T15:46:20;12.30;;;1.50;;
29838;SDS011;18669;53.356;-1.464;2022-10-19T15:48:53;14.65;;;2.15;;
29838;SDS011;18669;53.356;-1.464;2022-10-19T15:53:50;6.70;;;1.55;;
29838;SDS011;18669;53.356;-1.464;2022-10-19T15:56:25;13.35;;;1.92;;
29838;SDS011;18669;53.356;-1.464;2022-10-19T15:58:56;8.52;;;1.90;;
29838;SDS011;18669;53.356;-1.464;2022-10-19T16:01:25;10.18;;;2.10;;
29838;SDS011;18669;53.356;-1.464;2022-10-19T16:03:54;5.05;;;2.03;;
29838;SDS011;18669;53.356;-1.464;2022-10-19T16:06:21;9.32;;;1.85;;
29838;SDS011;18669;53.356;-1.464;2022-10-19T16:08:49;9.13;;;1.77;;
29838;SDS011;18669;53.356;-1.464;2022-10-19T16:11:17;14.43;;;3.13;;
29838;SDS011;18669;53.356;-1.464;2022-10-19T16:13:44;6.75;;;1.90;;
29838;SDS011;18669;53.356;-1.464;2022-10-19T16:16:12;7.82;;;1.92;;
29838;SDS011;18669;53.356;-1.464;2022-10-19T16:18:46;13.25;;;2.30;;
29838;SDS011;18669;53.356;-1.464;2022-10-19T16:21:12;11.48;;;4.10;;
29838;SDS011;18669;53.356;-1.464;2022-10-19T16:23:39;11.93;;;2.25;;
29838;SDS011;18669;53.356;-1.464;2022-10-19T16:26:08;16.75;;;4.78;;
29838;SDS011;18669;53.356;-1.464;2022-10-19T16:28:38;16.13;;;3.63;;
29838;SDS011;18669;53.356;-1.464;2022-10-19T16:31:04;14.65;;;6.40;;
29838;SDS011;18669;53.356;-1.464;2022-10-19T16:33:30;9.10;;;2.53;;
29838;SDS011;18669;53.356;-1.464;2022-10-19T16:35:56;15.18;;;4.10;;
29838;SDS011;18669;53.356;-1.464;2022-10-19T16:40:50;9.30;;;1.88;;
29838;SDS011;18669;53.356;-1.464;2022-10-19T16:43:17;10.30;;;2.47;;
29838;SDS011;18669;53.356;-1.464;2022-10-19T16:48:12;8.83;;;1.50;;
29838;SDS011;18669;53.356;-1.464;2022-10-19T16:50:38;8.50;;;2.22;;
29838;SDS011;18669;53.356;-1.464;2022-10-19T16:55:38;9.25;;;1.83;;
29838;SDS011;18669;53.356;-1.464;2022-10-19T16:58:05;11.35;;;2.00;;
29838;SDS011;18669;53.356;-1.464;2022-10-19T17:00:32;10.98;;;2.00;;
29838;SDS011;18669;53.356;-1.464;2022-10-19T17:02:58;14.13;;;2.10;;
29838;SDS011;18669;53.356;-1.464;2022-10-19T17:05:25;15.93;;;2.35;;
29838;SDS011;18669;53.356;-1.464;2022-10-19T17:07:51;11.90;;;2.25;;
29838;SDS011;18669;53.356;-1.464;2022-10-19T17:10:17;10.45;;;1.92;;
29838;SDS011;18669;53.356;-1.464;2022-10-19T17:15:09;6.63;;;1.67;;
29838;SDS011;18669;53.356;-1.464;2022-10-19T17:17:36;6.78;;;1.83;;
29838;SDS011;18669;53.356;-1.464;2022-10-19T17:20:04;8.63;;;1.45;;
29838;SDS011;18669;53.356;-1.464;2022-10-19T17:22:30;13.88;;;2.50;;
29838;SDS011;18669;53.356;-1.464;2022-10-19T17:27:22;10.40;;;1.95;;
29838;SDS011;18669;53.356;-1.464;2022-10-19T17:29:49;13.32;;;2.70;;
29838;SDS011;18669;53.356;-1.464;2022-10-19T17:32:15;8.50;;;2.00;;
29838;SDS011;18669;53.356;-1.464;2022-10-19T17:37:07;12.30;;;2.63;;
29838;SDS011;18669;53.356;-1.464;2022-10-19T17:41:59;11.90;;;2.87;;
29838;SDS011;18669;53.356;-1.464;2022-10-19T17:44:28;15.07;;;3.97;;
29838;SDS011;18669;53.356;-1.464;2022-10-19T17:46:55;23.60;;;2.55;;
29838;SDS011;18669;53.356;-1.464;2022-10-19T17:49:22;14.55;;;2.20;;
29838;SDS011;18669;53.356;-1.464;2022-10-19T17:54:16;14.57;;;2.70;;
29838;SDS011;18669;53.356;-1.464;2022-10-19T17:56:42;10.68;;;2.63;;
29838;SDS011;18669;53.356;-1.464;2022-10-19T17:59:09;13.30;;;2.20;;
29838;SDS011;18669;53.356;-1.464;2022-10-19T18:01:36;12.75;;;3.00;;
29838;SDS011;18669;53.356;-1.464;2022-10-19T18:04:02;14.38;;;2.85;;
29838;SDS011;18669;53.356;-1.464;2022-10-19T18:06:30;12.30;;;2.20;;
29838;SDS011;18669;53.356;-1.464;2022-10-19T18:08:58;13.40;;;2.00;;
29838;SDS011;18669;53.356;-1.464;2022-10-19T18:11:33;11.43;;;2.33;;
29838;SDS011;18669;53.356;-1.464;2022-10-19T18:14:05;12.68;;;2.38;;
29838;SDS011;18669;53.356;-1.464;2022-10-19T18:16:34;16.58;;;2.40;;
29838;SDS011;18669;53.356;-1.464;2022-10-19T18:19:05;10.75;;;2.67;;
29838;SDS011;18669;53.356;-1.464;2022-10-19T18:21:33;12.98;;;2.22;;
29838;SDS011;18669;53.356;-1.464;2022-10-19T18:24:06;13.93;;;2.20;;
29838;SDS011;18669;53.356;-1.464;2022-10-19T18:26:34;12.02;;;2.20;;
29838;SDS011;18669;53.356;-1.464;2022-10-19T18:29:07;11.85;;;2.22;;
29838;SDS011;18669;53.356;-1.464;2022-10-19T18:31:36;17.23;;;3.53;;
29838;SDS011;18669;53.356;-1.464;2022-10-19T18:34:04;17.33;;;2.70;;
29838;SDS011;18669;53.356;-1.464;2022-10-19T18:36:31;20.17;;;2.67;;
29838;SDS011;18669;53.356;-1.464;2022-10-19T18:38:59;16.35;;;2.97;;
29838;SDS011;18669;53.356;-1.464;2022-10-19T18:41:27;14.00;;;2.30;;
29838;SDS011;18669;53.356;-1.464;2022-10-19T18:43:55;18.65;;;2.97;;
29838;SDS011;18669;53.356;-1.464;2022-10-19T18:46:23;12.40;;;2.78;;
29838;SDS011;18669;53.356;-1.464;2022-10-19T18:48:51;12.52;;;2.47;;
29838;SDS011;18669;53.356;-1.464;2022-10-19T18:51:18;9.73;;;2.75;;
29838;SDS011;18669;53.356;-1.464;2022-10-19T18:53:46;9.05;;;2.28;;
29838;SDS011;18669;53.356;-1.464;2022-10-19T18:56:13;18.73;;;2.42;;